TimeEST,TemperatureF,Dew PointF,Humidity,Sea Level PressureIn,VisibilityMPH,Wind Direction,Wind SpeedMPH,Gust SpeedMPH,PrecipitationIn,Events,Conditions,WindDirDegrees,DateUTC
12:15 AM,32.0,29.5,90,30.22,10.0,Calm,Calm,-,N/A,,Clear,0,2013-12-16 05:15:00
12:35 AM,32.0,29.3,90,30.22,10.0,Calm,Calm,-,N/A,,Clear,0,2013-12-16 05:35:00
12:55 AM,30.0,28.0,92,30.22,10.0,Calm,Calm,-,N/A,,Clear,0,2013-12-16 05:55:00
1:15 AM,30.6,29.1,94,30.23,7.0,Calm,Calm,-,N/A,,Clear,0,2013-12-16 06:15:00
1:35 AM,29.1,27.9,95,30.22,7.0,Calm,Calm,-,N/A,,Clear,0,2013-12-16 06:35:00
1:55 AM,27.9,26.8,96,30.22,7.0,Calm,Calm,-,N/A,,Clear,0,2013-12-16 06:55:00
2:15 AM,29.3,28.4,96,30.22,7.0,Calm,Calm,-,N/A,,Clear,0,2013-12-16 07:15:00
2:35 AM,28.6,27.7,96,30.22,7.0,Calm,Calm,-,N/A,,Clear,0,2013-12-16 07:35:00
2:55 AM,28.4,27.5,96,30.22,7.0,Calm,Calm,-,N/A,,Clear,0,2013-12-16 07:55:00
3:15 AM,28.2,27.3,96,30.22,7.0,Calm,Calm,-,N/A,,Clear,0,2013-12-16 08:15:00
3:35 AM,26.6,25.3,95,30.22,7.0,Calm,Calm,-,N/A,,Clear,0,2013-12-16 08:35:00
3:55 AM,26.8,25.3,94,30.22,7.0,Calm,Calm,-,N/A,,Clear,0,2013-12-16 08:55:00
4:15 AM,27.1,26.4,97,30.23,5.0,Calm,Calm,-,N/A,,Clear,0,2013-12-16 09:15:00
4:35 AM,27.0,25.7,95,30.22,7.0,Calm,Calm,-,N/A,,Clear,0,2013-12-16 09:35:00
5:15 AM,27.0,25.7,95,30.24,7.0,Calm,Calm,-,N/A,,Clear,0,2013-12-16 10:15:00
5:35 AM,26.6,25.7,96,30.24,7.0,Calm,Calm,-,N/A,,Clear,0,2013-12-16 10:35:00
5:55 AM,25.7,24.4,95,30.24,7.0,Calm,Calm,-,N/A,,Clear,0,2013-12-16 10:55:00
6:15 AM,25.0,23.7,95,30.25,7.0,Calm,Calm,-,N/A,,Clear,0,2013-12-16 11:15:00
6:35 AM,25.7,24.6,96,30.25,7.0,Calm,Calm,-,N/A,,Clear,0,2013-12-16 11:35:00
6:55 AM,25.5,23.7,93,30.25,10.0,Calm,Calm,-,N/A,,Clear,0,2013-12-16 11:55:00
7:15 AM,25.7,24.8,96,30.25,7.0,Calm,Calm,-,N/A,,Clear,0,2013-12-16 12:15:00
7:35 AM,25.7,24.3,94,30.26,7.0,Calm,Calm,-,N/A,,Clear,0,2013-12-16 12:35:00
7:55 AM,25.9,24.3,94,30.26,7.0,Calm,Calm,-,N/A,,Clear,0,2013-12-16 12:55:00
8:15 AM,26.4,25.3,96,30.27,7.0,Calm,Calm,-,N/A,,Clear,0,2013-12-16 13:15:00
8:35 AM,28.6,27.0,94,30.28,7.0,Calm,Calm,-,N/A,,Clear,0,2013-12-16 13:35:00
8:55 AM,30.7,29.3,94,30.28,5.0,Calm,Calm,-,N/A,,Clear,0,2013-12-16 13:55:00
9:15 AM,33.1,31.6,94,30.28,5.0,Calm,Calm,-,N/A,,Clear,0,2013-12-16 14:15:00
9:35 AM,34.9,32.4,91,30.28,5.0,Calm,Calm,-,N/A,,Clear,0,2013-12-16 14:35:00
9:55 AM,35.8,32.9,89,30.29,7.0,Calm,Calm,-,N/A,,Clear,0,2013-12-16 14:55:00
10:15 AM,38.1,32.5,80,30.29,10.0,Calm,Calm,-,N/A,,Clear,0,2013-12-16 15:15:00
10:35 AM,40.3,32.9,75,30.30,10.0,Calm,Calm,-,N/A,,Clear,0,2013-12-16 15:35:00
10:55 AM,42.3,32.0,67,30.30,10.0,Calm,Calm,-,N/A,,Clear,0,2013-12-16 15:55:00
11:15 AM,43.2,33.1,68,30.29,10.0,Calm,Calm,-,N/A,,Clear,0,2013-12-16 16:15:00
11:35 AM,46.2,32.0,58,30.29,10.0,WNW,3.5,-,N/A,,Clear,300,2013-12-16 16:35:00
11:55 AM,47.1,32.4,57,30.27,10.0,Calm,Calm,-,N/A,,Clear,0,2013-12-16 16:55:00
12:15 PM,48.9,32.2,52,30.26,10.0,NW,3.5,-,N/A,,Clear,320,2013-12-16 17:15:00
12:35 PM,51.1,31.6,47,30.25,10.0,WNW,5.8,-,N/A,,Clear,290,2013-12-16 17:35:00
12:55 PM,52.0,31.8,46,30.24,10.0,NW,4.6,-,N/A,,Clear,310,2013-12-16 17:55:00
1:15 PM,52.9,32.0,45,30.23,10.0,West,3.5,-,N/A,,Clear,280,2013-12-16 18:15:00
1:35 PM,53.6,32.2,44,30.22,10.0,West,5.8,-,N/A,,Clear,270,2013-12-16 18:35:00
1:55 PM,54.7,32.2,42,30.22,10.0,West,4.6,-,N/A,,Clear,280,2013-12-16 18:55:00
2:15 PM,55.8,31.8,40,30.21,10.0,NW,4.6,-,N/A,,Clear,310,2013-12-16 19:15:00
2:35 PM,57.0,31.5,38,30.22,10.0,West,10.4,-,N/A,,Clear,280,2013-12-16 19:35:00
2:55 PM,57.6,30.4,36,30.21,10.0,WNW,6.9,-,N/A,,Clear,300,2013-12-16 19:55:00
3:15 PM,57.4,30.0,35,30.21,10.0,NW,6.9,-,N/A,,Clear,320,2013-12-16 20:15:00
3:35 PM,57.7,30.6,36,30.21,10.0,NW,5.8,-,N/A,,Clear,310,2013-12-16 20:35:00
3:55 PM,57.6,30.7,36,30.21,10.0,West,5.8,-,N/A,,Clear,270,2013-12-16 20:55:00
4:15 PM,57.4,31.1,37,30.21,10.0,West,3.5,-,N/A,,Clear,260,2013-12-16 21:15:00
4:35 PM,57.0,32.0,39,30.21,10.0,West,3.5,-,N/A,,Clear,270,2013-12-16 21:35:00
4:55 PM,56.3,32.0,40,30.22,10.0,SW,3.5,-,N/A,,Clear,230,2013-12-16 21:55:00
5:15 PM,54.5,32.5,43,30.22,10.0,WSW,3.5,-,N/A,,Clear,250,2013-12-16 22:15:00
5:35 PM,51.8,30.7,45,30.22,10.0,WSW,4.6,-,N/A,,Clear,250,2013-12-16 22:35:00
5:55 PM,46.2,31.8,57,30.22,10.0,SW,4.6,-,N/A,,Clear,230,2013-12-16 22:55:00
6:15 PM,44.6,33.8,66,30.22,10.0,Calm,Calm,-,N/A,,Clear,0,2013-12-16 23:15:00
6:35 PM,43.3,34.3,71,30.23,10.0,Calm,Calm,-,N/A,,Clear,0,2013-12-16 23:35:00
6:55 PM,38.8,32.9,79,30.23,10.0,Calm,Calm,-,N/A,,Clear,0,2013-12-16 23:55:00
7:15 PM,38.1,32.9,81,30.23,10.0,Calm,Calm,-,N/A,,Clear,0,2013-12-17 00:15:00
7:35 PM,38.7,33.8,83,30.24,10.0,Calm,Calm,-,N/A,,Clear,0,2013-12-17 00:35:00
7:55 PM,37.0,33.4,87,30.24,10.0,Calm,Calm,-,N/A,,Clear,0,2013-12-17 00:55:00
8:15 PM,37.0,32.9,85,30.24,10.0,Calm,Calm,-,N/A,,Clear,0,2013-12-17 01:15:00
8:35 PM,36.1,33.3,89,30.24,10.0,Calm,Calm,-,N/A,,Clear,0,2013-12-17 01:35:00
8:55 PM,35.6,32.5,89,30.26,10.0,Calm,Calm,-,N/A,,Clear,0,2013-12-17 01:55:00
9:15 PM,33.3,31.8,94,30.26,10.0,Calm,Calm,-,N/A,,Clear,0,2013-12-17 02:15:00
9:35 PM,33.3,31.6,94,30.26,10.0,Calm,Calm,-,N/A,,Clear,0,2013-12-17 02:35:00
9:55 PM,32.2,31.1,96,30.26,10.0,Calm,Calm,-,N/A,,Clear,0,2013-12-17 02:55:00
10:15 PM,32.2,31.3,96,30.26,10.0,Calm,Calm,-,N/A,,Clear,0,2013-12-17 03:15:00
10:35 PM,32.2,31.6,98,30.26,10.0,Calm,Calm,-,N/A,,Clear,0,2013-12-17 03:35:00
10:55 PM,32.2,31.6,98,30.26,10.0,Calm,Calm,-,N/A,,Clear,0,2013-12-17 03:55:00
11:15 PM,32.2,32.0,99,30.26,10.0,Calm,Calm,-,N/A,,Clear,0,2013-12-17 04:15:00
11:35 PM,32.0,30.7,95,30.26,10.0,Calm,Calm,-,N/A,,Clear,0,2013-12-17 04:35:00
11:55 PM,31.8,31.1,97,30.26,7.0,Calm,Calm,-,N/A,,Clear,0,2013-12-17 04:55:00